sensor_id;sensor_type;location;lat;lon;timestamp;P1;durP1;ratioP1;P2;durP2;ratioP2
15230;SDS011;32569;51.762;8.564;2022-08-03T00:00:54;7.87;;;7.17;;
15230;SDS011;32569;51.762;8.564;2022-08-03T00:03:20;7.70;;;7.10;;
15230;SDS011;32569;51.762;8.564;2022-08-03T00:05:47;7.80;;;7.20;;
15230;SDS011;32569;51.762;8.564;2022-08-03T00:08:15;7.70;;;7.00;;
15230;SDS011;32569;51.762;8.564;2022-08-03T00:10:42;9.93;;;8.20;;
15230;SDS011;32569;51.762;8.564;2022-08-03T00:13:09;7.53;;;7.03;;
15230;SDS011;32569;51.762;8.564;2022-08-03T00:15:37;9.40;;;8.43;;
15230;SDS011;32569;51.762;8.564;2022-08-03T00:18:04;8.53;;;7.93;;
15230;SDS011;32569;51.762;8.564;2022-08-03T00:20:31;8.90;;;8.10;;
15230;SDS011;32569;51.762;8.564;2022-08-03T00:22:58;8.93;;;8.30;;
15230;SDS011;32569;51.762;8.564;2022-08-03T00:25:26;9.20;;;8.60;;
15230;SDS011;32569;51.762;8.564;2022-08-03T00:27:52;9.40;;;8.60;;
15230;SDS011;32569;51.762;8.564;2022-08-03T00:30:19;9.77;;;8.97;;
15230;SDS011;32569;51.762;8.564;2022-08-03T00:32:46;10.00;;;9.10;;
15230;SDS011;32569;51.762;8.564;2022-08-03T00:35:13;9.13;;;8.43;;
15230;SDS011;32569;51.762;8.564;2022-08-03T00:37:40;9.53;;;8.77;;
15230;SDS011;32569;51.762;8.564;2022-08-03T00:40:07;9.60;;;8.90;;
15230;SDS011;32569;51.762;8.564;2022-08-03T00:42:45;9.87;;;8.97;;
15230;SDS011;32569;51.762;8.564;2022-08-03T00:45:14;9.70;;;8.90;;
15230;SDS011;32569;51.762;8.564;2022-08-03T00:47:41;9.37;;;8.47;;
15230;SDS011;32569;51.762;8.564;2022-08-03T00:50:08;9.63;;;8.93;;
15230;SDS011;32569;51.762;8.564;2022-08-03T00:52:35;9.57;;;8.87;;
15230;SDS011;32569;51.762;8.564;2022-08-03T00:55:02;9.63;;;8.83;;
15230;SDS011;32569;51.762;8.564;2022-08-03T00:57:29;9.50;;;8.67;;
15230;SDS011;32569;51.762;8.564;2022-08-03T00:59:59;8.67;;;8.07;;
15230;SDS011;32569;51.762;8.564;2022-08-03T01:02:26;8.90;;;8.20;;
15230;SDS011;32569;51.762;8.564;2022-08-03T01:04:53;9.30;;;8.57;;
15230;SDS011;32569;51.762;8.564;2022-08-03T01:07:22;8.70;;;8.10;;
15230;SDS011;32569;51.762;8.564;2022-08-03T01:10:07;9.00;;;8.30;;
15230;SDS011;32569;51.762;8.564;2022-08-03T01:12:41;9.83;;;9.13;;
15230;SDS011;32569;51.762;8.564;2022-08-03T01:15:14;9.30;;;8.60;;
15230;SDS011;32569;51.762;8.564;2022-08-03T01:17:50;9.23;;;8.53;;
15230;SDS011;32569;51.762;8.564;2022-08-03T01:20:21;8.43;;;7.83;;
15230;SDS011;32569;51.762;8.564;2022-08-03T01:23:05;9.00;;;8.30;;
15230;SDS011;32569;51.762;8.564;2022-08-03T01:25:54;8.73;;;8.13;;
15230;SDS011;32569;51.762;8.564;2022-08-03T01:28:37;8.20;;;7.60;;
15230;SDS011;32569;51.762;8.564;2022-08-03T01:31:14;8.80;;;8.10;;
15230;SDS011;32569;51.762;8.564;2022-08-03T01:33:49;8.70;;;8.00;;
15230;SDS011;32569;51.762;8.564;2022-08-03T01:36:33;9.67;;;8.50;;
15230;SDS011;32569;51.762;8.564;2022-08-03T01:39:03;8.33;;;7.67;;
15230;SDS011;32569;51.762;8.564;2022-08-03T01:41:34;8.80;;;8.00;;
15230;SDS011;32569;51.762;8.564;2022-08-03T01:44:05;8.53;;;7.93;;
15230;SDS011;32569;51.762;8.564;2022-08-03T01:46:35;8.57;;;7.77;;
15230;SDS011;32569;51.762;8.564;2022-08-03T01:49:05;8.40;;;7.80;;
15230;SDS011;32569;51.762;8.564;2022-08-03T01:51:33;8.40;;;7.67;;
15230;SDS011;32569;51.762;8.564;2022-08-03T01:54:00;8.30;;;7.70;;
15230;SDS011;32569;51.762;8.564;2022-08-03T01:56:29;8.40;;;7.60;;
15230;SDS011;32569;51.762;8.564;2022-08-03T01:58:57;9.03;;;8.27;;
15230;SDS011;32569;51.762;8.564;2022-08-03T02:01:26;8.60;;;7.90;;
15230;SDS011;32569;51.762;8.564;2022-08-03T02:03:55;7.87;;;7.13;;
15230;SDS011;32569;51.762;8.564;2022-08-03T02:06:24;8.00;;;7.40;;
15230;SDS011;32569;51.762;8.564;2022-08-03T02:08:52;8.03;;;7.33;;
15230;SDS011;32569;51.762;8.564;2022-08-03T02:11:21;8.00;;;7.30;;
15230;SDS011;32569;51.762;8.564;2022-08-03T02:13:48;8.13;;;7.43;;
15230;SDS011;32569;51.762;8.564;2022-08-03T02:16:17;8.03;;;7.27;;
15230;SDS011;32569;51.762;8.564;2022-08-03T02:18:46;8.00;;;7.27;;
15230;SDS011;32569;51.762;8.564;2022-08-03T02:21:15;8.80;;;7.77;;
15230;SDS011;32569;51.762;8.564;2022-08-03T02:23:42;8.00;;;7.30;;
15230;SDS011;32569;51.762;8.564;2022-08-03T02:26:11;7.60;;;6.97;;
15230;SDS011;32569;51.762;8.564;2022-08-03T02:28:41;7.83;;;7.13;;
15230;SDS011;32569;51.762;8.564;2022-08-03T02:31:12;6.97;;;6.37;;
15230;SDS011;32569;51.762;8.564;2022-08-03T02:33:42;7.67;;;7.00;;
15230;SDS011;32569;51.762;8.564;2022-08-03T02:36:14;7.47;;;6.83;;
15230;SDS011;32569;51.762;8.564;2022-08-03T02:38:45;8.00;;;7.30;;
15230;SDS011;32569;51.762;8.564;2022-08-03T02:41:17;9.87;;;7.60;;
15230;SDS011;32569;51.762;8.564;2022-08-03T02:43:50;7.20;;;6.63;;
15230;SDS011;32569;51.762;8.564;2022-08-03T02:46:19;6.97;;;6.37;;
15230;SDS011;32569;51.762;8.564;2022-08-03T02:48:50;7.10;;;6.50;;
15230;SDS011;32569;51.762;8.564;2022-08-03T02:51:20;7.73;;;7.13;;
15230;SDS011;32569;51.762;8.564;2022-08-03T02:53:48;7.30;;;6.70;;
15230;SDS011;32569;51.762;8.564;2022-08-03T02:56:16;7.27;;;6.57;;
15230;SDS011;32569;51.762;8.564;2022-08-03T02:58:44;7.63;;;6.93;;
15230;SDS011;32569;51.762;8.564;2022-08-03T03:01:13;7.43;;;6.73;;
15230;SDS011;32569;51.762;8.564;2022-08-03T03:03:40;7.17;;;6.53;;
15230;SDS011;32569;51.762;8.564;2022-08-03T03:06:07;7.30;;;6.50;;
15230;SDS011;32569;51.762;8.564;2022-08-03T03:08:37;7.57;;;6.93;;
15230;SDS011;32569;51.762;8.564;2022-08-03T03:11:04;8.63;;;7.03;;
15230;SDS011;32569;51.762;8.564;2022-08-03T03:13:32;7.27;;;6.67;;
15230;SDS011;32569;51.762;8.564;2022-08-03T03:15:59;8.07;;;7.27;;
15230;SDS011;32569;51.762;8.564;2022-08-03T03:18:27;7.93;;;7.20;;
15230;SDS011;32569;51.762;8.564;2022-08-03T03:20:56;7.53;;;6.83;;
15230;SDS011;32569;51.762;8.564;2022-08-03T03:23:24;8.37;;;7.57;;
15230;SDS011;32569;51.762;8.564;2022-08-03T03:25:53;7.53;;;6.83;;
15230;SDS011;32569;51.762;8.564;2022-08-03T03:28:22;8.10;;;7.47;;
15230;SDS011;32569;51.762;8.564;2022-08-03T03:30:50;8.27;;;7.50;;
15230;SDS011;32569;51.762;8.564;2022-08-03T03:33:18;8.90;;;7.67;;
15230;SDS011;32569;51.762;8.564;2022-08-03T03:35:45;7.70;;;7.10;;
15230;SDS011;32569;51.762;8.564;2022-08-03T03:38:12;8.77;;;8.07;;
15230;SDS011;32569;51.762;8.564;2022-08-03T03:40:39;9.00;;;8.17;;
15230;SDS011;32569;51.762;8.564;2022-08-03T03:43:08;9.07;;;8.37;;
15230;SDS011;32569;51.762;8.564;2022-08-03T03:45:35;8.27;;;7.57;;
15230;SDS011;32569;51.762;8.564;2022-08-03T03:48:03;8.03;;;7.33;;
15230;SDS011;32569;51.762;8.564;2022-08-03T03:50:32;8.80;;;7.90;;
15230;SDS011;32569;51.762;8.564;2022-08-03T03:53:00;8.77;;;7.83;;
15230;SDS011;32569;51.762;8.564;2022-08-03T03:55:27;7.83;;;6.77;;
15230;SDS011;32569;51.762;8.564;2022-08-03T03:57:54;8.30;;;7.47;;
15230;SDS011;32569;51.762;8.564;2022-08-03T04:00:22;7.80;;;7.10;;
15230;SDS011;32569;51.762;8.564;2022-08-03T04:02:49;9.20;;;8.50;;
15230;SDS011;32569;51.762;8.564;2022-08-03T04:05:15;8.27;;;7.60;;
15230;SDS011;32569;51.762;8.564;2022-08-03T04:08:00;8.13;;;7.53;;
15230;SDS011;32569;51.762;8.564;2022-08-03T04:11:01;8.37;;;7.57;;
15230;SDS011;32569;51.762;8.564;2022-08-03T04:13:33;8.07;;;7.30;;
15230;SDS011;32569;51.762;8.564;2022-08-03T04:16:04;8.17;;;7.40;;
15230;SDS011;32569;51.762;8.564;2022-08-03T04:18:33;8.33;;;7.63;;
15230;SDS011;32569;51.762;8.564;2022-08-03T04:21:03;9.13;;;7.70;;
15230;SDS011;32569;51.762;8.564;2022-08-03T04:23:34;8.83;;;7.97;;
15230;SDS011;32569;51.762;8.564;2022-08-03T04:26:05;8.73;;;8.03;;
15230;SDS011;32569;51.762;8.564;2022-08-03T04:28:34;8.53;;;7.83;;
15230;SDS011;32569;51.762;8.564;2022-08-03T04:31:03;9.07;;;8.20;;
15230;SDS011;32569;51.762;8.564;2022-08-03T04:33:32;8.73;;;7.93;;
15230;SDS011;32569;51.762;8.564;2022-08-03T04:36:03;8.43;;;7.80;;
15230;SDS011;32569;51.762;8.564;2022-08-03T04:38:32;9.50;;;8.53;;
15230;SDS011;32569;51.762;8.564;2022-08-03T04:41:02;9.27;;;8.47;;
15230;SDS011;32569;51.762;8.564;2022-08-03T04:43:29;9.30;;;8.40;;
15230;SDS011;32569;51.762;8.564;2022-08-03T04:45:58;8.10;;;7.40;;
15230;SDS011;32569;51.762;8.564;2022-08-03T04:48:27;8.53;;;7.90;;
15230;SDS011;32569;51.762;8.564;2022-08-03T04:50:54;7.90;;;7.30;;
15230;SDS011;32569;51.762;8.564;2022-08-03T04:53:22;7.97;;;7.27;;
15230;SDS011;32569;51.762;8.564;2022-08-03T04:55:48;7.90;;;7.30;;
15230;SDS011;32569;51.762;8.564;2022-08-03T04:58:15;8.50;;;7.57;;
15230;SDS011;32569;51.762;8.564;2022-08-03T05:00:42;9.50;;;8.03;;
15230;SDS011;32569;51.762;8.564;2022-08-03T05:03:09;7.87;;;6.87;;
15230;SDS011;32569;51.762;8.564;2022-08-03T05:05:37;10.00;;;6.27;;
15230;SDS011;32569;51.762;8.564;2022-08-03T05:08:04;6.77;;;6.17;;
15230;SDS011;32569;51.762;8.564;2022-08-03T05:10:30;6.83;;;6.17;;
15230;SDS011;32569;51.762;8.564;2022-08-03T05:12:57;6.37;;;5.87;;
15230;SDS011;32569;51.762;8.564;2022-08-03T05:15:24;8.10;;;5.87;;
15230;SDS011;32569;51.762;8.564;2022-08-03T05:17:50;6.07;;;5.43;;
15230;SDS011;32569;51.762;8.564;2022-08-03T05:20:17;6.07;;;5.47;;
15230;SDS011;32569;51.762;8.564;2022-08-03T05:22:45;5.77;;;5.27;;
15230;SDS011;32569;51.762;8.564;2022-08-03T05:25:12;6.10;;;5.50;;
15230;SDS011;32569;51.762;8.564;2022-08-03T05:27:38;5.47;;;4.97;;
15230;SDS011;32569;51.762;8.564;2022-08-03T05:30:06;6.27;;;5.67;;
15230;SDS011;32569;51.762;8.564;2022-08-03T05:32:34;5.07;;;4.67;;
15230;SDS011;32569;51.762;8.564;2022-08-03T05:35:01;5.27;;;4.77;;
15230;SDS011;32569;51.762;8.564;2022-08-03T05:37:28;6.67;;;4.60;;
15230;SDS011;32569;51.762;8.564;2022-08-03T05:39:56;4.63;;;4.23;;
15230;SDS011;32569;51.762;8.564;2022-08-03T05:42:23;4.43;;;4.13;;
15230;SDS011;32569;51.762;8.564;2022-08-03T05:44:50;5.03;;;4.57;;
15230;SDS011;32569;51.762;8.564;2022-08-03T05:47:17;6.30;;;4.00;;
15230;SDS011;32569;51.762;8.564;2022-08-03T05:49:44;4.93;;;4.20;;
15230;SDS011;32569;51.762;8.564;2022-08-03T05:52:11;4.33;;;3.90;;
15230;SDS011;32569;51.762;8.564;2022-08-03T05:54:38;5.30;;;4.00;;
15230;SDS011;32569;51.762;8.564;2022-08-03T05:57:06;4.17;;;3.80;;
15230;SDS011;32569;51.762;8.564;2022-08-03T05:59:33;4.33;;;4.03;;
15230;SDS011;32569;51.762;8.564;2022-08-03T06:01:59;3.93;;;3.50;;
15230;SDS011;32569;51.762;8.564;2022-08-03T06:04:26;5.70;;;4.07;;
15230;SDS011;32569;51.762;8.564;2022-08-03T06:06:53;5.43;;;3.70;;
15230;SDS011;32569;51.762;8.564;2022-08-03T06:09:20;4.10;;;3.70;;
15230;SDS011;32569;51.762;8.564;2022-08-03T06:11:47;4.10;;;3.70;;
15230;SDS011;32569;51.762;8.564;2022-08-03T06:14:17;7.20;;;3.77;;
15230;SDS011;32569;51.762;8.564;2022-08-03T06:16:44;4.20;;;3.80;;
15230;SDS011;32569;51.762;8.564;2022-08-03T06:19:11;3.53;;;3.23;;
15230;SDS011;32569;51.762;8.564;2022-08-03T06:21:38;3.73;;;3.43;;
15230;SDS011;32569;51.762;8.564;2022-08-03T06:24:05;3.97;;;3.67;;
15230;SDS011;32569;51.762;8.564;2022-08-03T06:26:33;3.80;;;3.50;;
15230;SDS011;32569;51.762;8.564;2022-08-03T06:29:00;4.30;;;3.80;;
15230;SDS011;32569;51.762;8.564;2022-08-03T06:31:29;5.77;;;3.30;;
15230;SDS011;32569;51.762;8.564;2022-08-03T06:33:55;6.37;;;3.53;;
15230;SDS011;32569;51.762;8.564;2022-08-03T06:36:22;4.57;;;3.10;;
15230;SDS011;32569;51.762;8.564;2022-08-03T06:38:49;3.90;;;3.40;;
15230;SDS011;32569;51.762;8.564;2022-08-03T06:41:17;4.53;;;3.20;;
15230;SDS011;32569;51.762;8.564;2022-08-03T06:43:44;4.80;;;3.53;;
15230;SDS011;32569;51.762;8.564;2022-08-03T06:46:10;4.70;;;3.10;;
15230;SDS011;32569;51.762;8.564;2022-08-03T06:48:40;4.40;;;3.97;;
15230;SDS011;32569;51.762;8.564;2022-08-03T06:51:07;4.07;;;3.63;;
15230;SDS011;32569;51.762;8.564;2022-08-03T06:53:34;4.00;;;3.10;;
15230;SDS011;32569;51.762;8.564;2022-08-03T06:56:01;6.73;;;3.23;;
15230;SDS011;32569;51.762;8.564;2022-08-03T06:58:30;6.93;;;3.10;;
15230;SDS011;32569;51.762;8.564;2022-08-03T07:00:57;4.57;;;3.17;;
15230;SDS011;32569;51.762;8.564;2022-08-03T07:03:24;5.50;;;3.10;;
15230;SDS011;32569;51.762;8.564;2022-08-03T07:05:52;3.50;;;3.20;;
15230;SDS011;32569;51.762;8.564;2022-08-03T07:08:19;4.33;;;3.53;;
15230;SDS011;32569;51.762;8.564;2022-08-03T07:10:48;4.30;;;3.20;;
15230;SDS011;32569;51.762;8.564;2022-08-03T07:13:15;5.17;;;3.00;;
15230;SDS011;32569;51.762;8.564;2022-08-03T07:15:42;3.17;;;2.87;;
15230;SDS011;32569;51.762;8.564;2022-08-03T07:18:09;3.47;;;3.17;;
15230;SDS011;32569;51.762;8.564;2022-08-03T07:20:36;5.37;;;3.07;;
15230;SDS011;32569;51.762;8.564;2022-08-03T07:23:04;3.20;;;2.90;;
15230;SDS011;32569;51.762;8.564;2022-08-03T07:25:31;5.33;;;3.23;;
15230;SDS011;32569;51.762;8.564;2022-08-03T07:27:58;5.33;;;3.33;;
15230;SDS011;32569;51.762;8.564;2022-08-03T07:30:25;3.10;;;2.87;;
15230;SDS011;32569;51.762;8.564;2022-08-03T07:32:52;4.77;;;2.70;;
15230;SDS011;32569;51.762;8.564;2022-08-03T07:35:19;5.10;;;3.30;;
15230;SDS011;32569;51.762;8.564;2022-08-03T07:37:47;4.63;;;3.30;;
15230;SDS011;32569;51.762;8.564;2022-08-03T07:40:15;4.30;;;2.63;;
15230;SDS011;32569;51.762;8.564;2022-08-03T07:42:42;6.43;;;3.20;;
15230;SDS011;32569;51.762;8.564;2022-08-03T07:45:09;3.57;;;3.17;;
15230;SDS011;32569;51.762;8.564;2022-08-03T07:47:36;5.00;;;3.40;;
15230;SDS011;32569;51.762;8.564;2022-08-03T07:50:04;6.63;;;3.03;;
15230;SDS011;32569;51.762;8.564;2022-08-03T07:52:31;3.97;;;3.13;;
15230;SDS011;32569;51.762;8.564;2022-08-03T07:55:15;4.07;;;2.80;;
15230;SDS011;32569;51.762;8.564;2022-08-03T07:57:43;2.83;;;2.53;;
15230;SDS011;32569;51.762;8.564;2022-08-03T08:00:12;6.20;;;3.00;;
15230;SDS011;32569;51.762;8.564;2022-08-03T08:02:41;4.83;;;3.10;;
15230;SDS011;32569;51.762;8.564;2022-08-03T08:05:09;3.30;;;3.00;;
15230;SDS011;32569;51.762;8.564;2022-08-03T08:07:37;4.97;;;3.03;;
15230;SDS011;32569;51.762;8.564;2022-08-03T08:10:05;6.63;;;2.80;;
15230;SDS011;32569;51.762;8.564;2022-08-03T08:12:35;4.67;;;2.53;;
15230;SDS011;32569;51.762;8.564;2022-08-03T08:15:02;4.17;;;2.90;;
15230;SDS011;32569;51.762;8.564;2022-08-03T08:17:30;5.10;;;2.80;;
15230;SDS011;32569;51.762;8.564;2022-08-03T08:20:06;5.03;;;3.03;;
15230;SDS011;32569;51.762;8.564;2022-08-03T08:22:34;5.17;;;3.07;;
15230;SDS011;32569;51.762;8.564;2022-08-03T08:25:01;4.63;;;2.77;;
15230;SDS011;32569;51.762;8.564;2022-08-03T08:27:28;4.93;;;2.80;;
15230;SDS011;32569;51.762;8.564;2022-08-03T08:29:56;5.70;;;2.40;;
15230;SDS011;32569;51.762;8.564;2022-08-03T08:32:24;2.90;;;2.50;;
15230;SDS011;32569;51.762;8.564;2022-08-03T08:34:51;2.97;;;2.77;;
15230;SDS011;32569;51.762;8.564;2022-08-03T08:37:18;2.43;;;2.23;;
15230;SDS011;32569;51.762;8.564;2022-08-03T08:39:45;6.60;;;2.70;;
15230;SDS011;32569;51.762;8.564;2022-08-03T08:42:12;5.00;;;2.77;;
15230;SDS011;32569;51.762;8.564;2022-08-03T08:44:41;7.17;;;3.10;;
15230;SDS011;32569;51.762;8.564;2022-08-03T08:47:10;3.17;;;2.70;;
15230;SDS011;32569;51.762;8.564;2022-08-03T08:49:38;3.97;;;2.90;;
15230;SDS011;32569;51.762;8.564;2022-08-03T08:52:06;4.50;;;2.57;;
15230;SDS011;32569;51.762;8.564;2022-08-03T08:54:34;2.83;;;2.60;;
15230;SDS011;32569;51.762;8.564;2022-08-03T08:57:05;3.50;;;2.50;;
15230;SDS011;32569;51.762;8.564;2022-08-03T08:59:34;4.17;;;2.67;;
15230;SDS011;32569;51.762;8.564;2022-08-03T09:02:02;7.17;;;2.53;;
15230;SDS011;32569;51.762;8.564;2022-08-03T09:04:30;3.40;;;2.50;;
15230;SDS011;32569;51.762;8.564;2022-08-03T09:06:58;3.43;;;2.13;;
15230;SDS011;32569;51.762;8.564;2022-08-03T09:09:27;3.23;;;2.23;;
15230;SDS011;32569;51.762;8.564;2022-08-03T09:11:53;4.90;;;2.63;;
15230;SDS011;32569;51.762;8.564;2022-08-03T09:14:21;3.00;;;2.60;;
15230;SDS011;32569;51.762;8.564;2022-08-03T09:16:54;3.03;;;2.40;;
15230;SDS011;32569;51.762;8.564;2022-08-03T09:19:25;4.20;;;2.83;;
15230;SDS011;32569;51.762;8.564;2022-08-03T09:22:08;2.97;;;2.20;;
15230;SDS011;32569;51.762;8.564;2022-08-03T09:24:37;3.17;;;2.03;;
15230;SDS011;32569;51.762;8.564;2022-08-03T09:27:18;5.03;;;2.03;;
15230;SDS011;32569;51.762;8.564;2022-08-03T09:29:46;4.03;;;2.10;;
15230;SDS011;32569;51.762;8.564;2022-08-03T09:32:14;2.17;;;2.03;;
15230;SDS011;32569;51.762;8.564;2022-08-03T09:34:45;2.50;;;2.30;;
15230;SDS011;32569;51.762;8.564;2022-08-03T09:37:15;2.60;;;2.10;;
15230;SDS011;32569;51.762;8.564;2022-08-03T09:39:43;2.57;;;2.30;;
15230;SDS011;32569;51.762;8.564;2022-08-03T09:42:11;2.45;;;2.08;;
15230;SDS011;32569;51.762;8.564;2022-08-03T09:44:40;2.73;;;2.03;;
15230;SDS011;32569;51.762;8.564;2022-08-03T09:47:07;2.50;;;2.30;;
15230;SDS011;32569;51.762;8.564;2022-08-03T09:49:35;2.40;;;2.00;;
15230;SDS011;32569;51.762;8.564;2022-08-03T09:52:11;2.50;;;2.10;;
15230;SDS011;32569;51.762;8.564;2022-08-03T09:54:41;2.20;;;1.97;;
15230;SDS011;32569;51.762;8.564;2022-08-03T09:57:18;3.97;;;2.67;;
15230;SDS011;32569;51.762;8.564;2022-08-03T09:59:47;3.55;;;2.40;;
15230;SDS011;32569;51.762;8.564;2022-08-03T10:02:19;4.20;;;2.50;;
15230;SDS011;32569;51.762;8.564;2022-08-03T10:04:48;3.17;;;2.87;;
15230;SDS011;32569;51.762;8.564;2022-08-03T10:07:17;2.57;;;2.30;;
15230;SDS011;32569;51.762;8.564;2022-08-03T10:09:53;5.15;;;3.22;;
15230;SDS011;32569;51.762;8.564;2022-08-03T10:12:21;3.63;;;2.60;;
15230;SDS011;32569;51.762;8.564;2022-08-03T10:14:49;3.67;;;2.35;;
15230;SDS011;32569;51.762;8.564;2022-08-03T10:17:17;3.38;;;2.38;;
15230;SDS011;32569;51.762;8.564;2022-08-03T10:19:45;3.67;;;2.20;;
15230;SDS011;32569;51.762;8.564;2022-08-03T10:22:13;3.00;;;2.70;;
15230;SDS011;32569;51.762;8.564;2022-08-03T10:24:45;3.42;;;2.50;;
15230;SDS011;32569;51.762;8.564;2022-08-03T10:27:17;4.18;;;2.80;;
15230;SDS011;32569;51.762;8.564;2022-08-03T10:29:46;2.55;;;2.35;;
15230;SDS011;32569;51.762;8.564;2022-08-03T10:32:18;3.03;;;2.22;;
15230;SDS011;32569;51.762;8.564;2022-08-03T10:34:48;6.28;;;2.42;;
15230;SDS011;32569;51.762;8.564;2022-08-03T10:37:17;3.10;;;2.65;;
15230;SDS011;32569;51.762;8.564;2022-08-03T10:39:46;3.20;;;2.50;;
15230;SDS011;32569;51.762;8.564;2022-08-03T10:42:22;2.70;;;2.50;;
15230;SDS011;32569;51.762;8.564;2022-08-03T10:44:52;3.70;;;2.38;;
15230;SDS011;32569;51.762;8.564;2022-08-03T10:47:26;3.13;;;2.85;;
15230;SDS011;32569;51.762;8.564;2022-08-03T10:49:53;4.38;;;2.90;;
15230;SDS011;32569;51.762;8.564;2022-08-03T10:52:21;5.07;;;2.58;;
15230;SDS011;32569;51.762;8.564;2022-08-03T10:54:48;2.42;;;2.30;;
15230;SDS011;32569;51.762;8.564;2022-08-03T10:57:47;2.67;;;2.30;;
15230;SDS011;32569;51.762;8.564;2022-08-03T11:00:17;3.92;;;2.35;;
15230;SDS011;32569;51.762;8.564;2022-08-03T11:05:40;5.13;;;2.70;;
15230;SDS011;32569;51.762;8.564;2022-08-03T11:11:23;3.42;;;2.63;;
15230;SDS011;32569;51.762;8.564;2022-08-03T11:13:59;2.63;;;2.42;;
15230;SDS011;32569;51.762;8.564;2022-08-03T11:16:29;2.65;;;2.45;;
15230;SDS011;32569;51.762;8.564;2022-08-03T11:18:59;4.85;;;2.78;;
15230;SDS011;32569;51.762;8.564;2022-08-03T11:27:24;2.95;;;2.55;;
15230;SDS011;32569;51.762;8.564;2022-08-03T11:29:58;2.83;;;2.20;;
15230;SDS011;32569;51.762;8.564;2022-08-03T11:35:17;4.43;;;2.72;;
15230;SDS011;32569;51.762;8.564;2022-08-03T11:38:02;5.07;;;2.60;;
15230;SDS011;32569;51.762;8.564;2022-08-03T11:40:31;3.13;;;2.40;;
15230;SDS011;32569;51.762;8.564;2022-08-03T11:42:59;3.22;;;2.50;;
15230;SDS011;32569;51.762;8.564;2022-08-03T11:45:28;3.20;;;2.40;;
15230;SDS011;32569;51.762;8.564;2022-08-03T11:47:56;3.88;;;2.60;;
15230;SDS011;32569;51.762;8.564;2022-08-03T11:50:25;2.92;;;2.05;;
15230;SDS011;32569;51.762;8.564;2022-08-03T11:52:52;5.40;;;2.55;;
15230;SDS011;32569;51.762;8.564;2022-08-03T11:55:19;5.03;;;2.72;;
15230;SDS011;32569;51.762;8.564;2022-08-03T11:57:47;3.60;;;2.60;;
15230;SDS011;32569;51.762;8.564;2022-08-03T12:00:24;3.78;;;2.20;;
15230;SDS011;32569;51.762;8.564;2022-08-03T12:03:01;2.65;;;2.45;;
15230;SDS011;32569;51.762;8.564;2022-08-03T12:08:17;3.08;;;2.58;;
15230;SDS011;32569;51.762;8.564;2022-08-03T12:10:55;2.92;;;2.13;;
15230;SDS011;32569;51.762;8.564;2022-08-03T12:13:23;4.63;;;2.55;;
15230;SDS011;32569;51.762;8.564;2022-08-03T12:15:53;3.17;;;2.50;;
15230;SDS011;32569;51.762;8.564;2022-08-03T12:18:21;4.10;;;2.85;;
15230;SDS011;32569;51.762;8.564;2022-08-03T12:20:50;3.42;;;2.60;;
15230;SDS011;32569;51.762;8.564;2022-08-03T12:23:18;2.60;;;2.25;;
15230;SDS011;32569;51.762;8.564;2022-08-03T12:25:46;2.35;;;2.25;;
15230;SDS011;32569;51.762;8.564;2022-08-03T12:28:15;3.92;;;2.63;;
15230;SDS011;32569;51.762;8.564;2022-08-03T12:30:43;3.10;;;2.17;;
15230;SDS011;32569;51.762;8.564;2022-08-03T12:33:17;3.47;;;2.67;;
15230;SDS011;32569;51.762;8.564;2022-08-03T12:35:46;2.50;;;2.30;;
15230;SDS011;32569;51.762;8.564;2022-08-03T12:38:18;2.30;;;2.10;;
15230;SDS011;32569;51.762;8.564;2022-08-03T12:41:00;2.58;;;2.38;;
15230;SDS011;32569;51.762;8.564;2022-08-03T12:43:31;4.15;;;2.40;;
15230;SDS011;32569;51.762;8.564;2022-08-03T12:46:08;2.75;;;2.22;;
15230;SDS011;32569;51.762;8.564;2022-08-03T12:48:44;3.17;;;2.30;;
15230;SDS011;32569;51.762;8.564;2022-08-03T12:51:32;2.58;;;2.10;;
15230;SDS011;32569;51.762;8.564;2022-08-03T12:54:02;2.00;;;1.80;;
15230;SDS011;32569;51.762;8.564;2022-08-03T12:56:30;2.42;;;1.95;;
15230;SDS011;32569;51.762;8.564;2022-08-03T12:58:57;2.83;;;2.00;;
15230;SDS011;32569;51.762;8.564;2022-08-03T13:01:25;3.78;;;2.30;;
15230;SDS011;32569;51.762;8.564;2022-08-03T13:04:03;3.08;;;1.90;;
15230;SDS011;32569;51.762;8.564;2022-08-03T13:06:30;4.47;;;2.17;;
15230;SDS011;32569;51.762;8.564;2022-08-03T13:09:01;3.05;;;2.38;;
15230;SDS011;32569;51.762;8.564;2022-08-03T13:11:30;2.08;;;1.88;;
15230;SDS011;32569;51.762;8.564;2022-08-03T13:13:58;2.45;;;1.77;;
15230;SDS011;32569;51.762;8.564;2022-08-03T13:16:26;3.17;;;2.05;;
15230;SDS011;32569;51.762;8.564;2022-08-03T13:18:54;1.70;;;1.60;;
15230;SDS011;32569;51.762;8.564;2022-08-03T13:21:22;2.67;;;1.65;;
15230;SDS011;32569;51.762;8.564;2022-08-03T13:23:49;2.42;;;1.92;;
15230;SDS011;32569;51.762;8.564;2022-08-03T13:26:16;2.33;;;2.13;;
15230;SDS011;32569;51.762;8.564;2022-08-03T13:28:44;2.47;;;2.10;;
15230;SDS011;32569;51.762;8.564;2022-08-03T13:31:11;3.40;;;1.88;;
15230;SDS011;32569;51.762;8.564;2022-08-03T13:33:38;2.50;;;1.92;;
15230;SDS011;32569;51.762;8.564;2022-08-03T13:36:05;2.08;;;1.85;;
15230;SDS011;32569;51.762;8.564;2022-08-03T13:38:34;3.05;;;2.05;;
15230;SDS011;32569;51.762;8.564;2022-08-03T13:41:01;3.17;;;2.10;;
15230;SDS011;32569;51.762;8.564;2022-08-03T13:43:28;1.77;;;1.63;;
15230;SDS011;32569;51.762;8.564;2022-08-03T13:45:55;2.05;;;1.77;;
15230;SDS011;32569;51.762;8.564;2022-08-03T13:48:22;3.80;;;1.90;;
15230;SDS011;32569;51.762;8.564;2022-08-03T13:50:49;2.20;;;1.90;;
15230;SDS011;32569;51.762;8.564;2022-08-03T13:53:16;2.03;;;1.92;;
15230;SDS011;32569;51.762;8.564;2022-08-03T13:55:44;5.85;;;2.38;;
15230;SDS011;32569;51.762;8.564;2022-08-03T13:58:11;2.72;;;1.95;;
15230;SDS011;32569;51.762;8.564;2022-08-03T14:00:38;2.72;;;2.53;;
15230;SDS011;32569;51.762;8.564;2022-08-03T14:03:05;3.53;;;2.00;;
15230;SDS011;32569;51.762;8.564;2022-08-03T14:05:33;2.33;;;1.88;;
15230;SDS011;32569;51.762;8.564;2022-08-03T14:08:02;9.80;;;2.80;;
15230;SDS011;32569;51.762;8.564;2022-08-03T14:10:31;2.30;;;2.10;;
15230;SDS011;32569;51.762;8.564;2022-08-03T14:13:02;3.53;;;1.75;;
15230;SDS011;32569;51.762;8.564;2022-08-03T14:15:29;2.92;;;2.10;;
15230;SDS011;32569;51.762;8.564;2022-08-03T14:17:56;2.33;;;2.13;;
15230;SDS011;32569;51.762;8.564;2022-08-03T14:20:24;2.40;;;2.20;;
15230;SDS011;32569;51.762;8.564;2022-08-03T14:22:54;2.60;;;2.10;;
15230;SDS011;32569;51.762;8.564;2022-08-03T14:25:22;2.67;;;1.80;;
15230;SDS011;32569;51.762;8.564;2022-08-03T14:27:52;2.53;;;2.33;;
15230;SDS011;32569;51.762;8.564;2022-08-03T14:30:20;2.67;;;1.73;;
15230;SDS011;32569;51.762;8.564;2022-08-03T14:32:50;3.13;;;2.00;;
15230;SDS011;32569;51.762;8.564;2022-08-03T14:35:17;7.07;;;2.45;;
15230;SDS011;32569;51.762;8.564;2022-08-03T14:37:44;3.75;;;2.83;;
15230;SDS011;32569;51.762;8.564;2022-08-03T14:40:11;3.00;;;1.83;;
15230;SDS011;32569;51.762;8.564;2022-08-03T14:42:38;2.42;;;1.80;;
15230;SDS011;32569;51.762;8.564;2022-08-03T14:45:05;3.28;;;2.03;;
15230;SDS011;32569;51.762;8.564;2022-08-03T14:47:34;2.00;;;1.85;;
15230;SDS011;32569;51.762;8.564;2022-08-03T14:50:03;2.33;;;2.10;;
15230;SDS011;32569;51.762;8.564;2022-08-03T14:52:31;2.20;;;2.00;;
15230;SDS011;32569;51.762;8.564;2022-08-03T14:54:58;3.08;;;2.63;;
15230;SDS011;32569;51.762;8.564;2022-08-03T14:57:26;2.00;;;1.90;;
15230;SDS011;32569;51.762;8.564;2022-08-03T14:59:53;4.30;;;2.03;;
15230;SDS011;32569;51.762;8.564;2022-08-03T15:02:20;3.63;;;2.25;;
15230;SDS011;32569;51.762;8.564;2022-08-03T15:04:48;2.15;;;1.90;;
15230;SDS011;32569;51.762;8.564;2022-08-03T15:07:15;2.45;;;1.90;;
15230;SDS011;32569;51.762;8.564;2022-08-03T15:09:42;2.90;;;2.20;;
15230;SDS011;32569;51.762;8.564;2022-08-03T15:12:09;4.40;;;2.08;;
15230;SDS011;32569;51.762;8.564;2022-08-03T15:14:37;2.90;;;2.08;;
15230;SDS011;32569;51.762;8.564;2022-08-03T15:17:04;3.08;;;1.92;;